Time;durP1;ratioP1;P1;durP2;ratioP2;P2;SDS_P1;SDS_P2;PMS_P1;PMS_P2;Temp;Humidity;BMP_temperature;BMP_pressure;BME280_temperature;BME280_humidity;BME280_pressure;Samples;Min_cycle;Max_cycle;Signal;HPM_P1;HPM_P2
2023/03/22 00:00:04;;;;;;;11.73;8.90;;;8.60;90.90;;;;;;5009526;28;20452;-64
2023/03/22 00:02:32;;;;;;;13.97;8.60;;;8.40;91.10;;;;;;5009924;28;20450;-65
2023/03/22 00:04:58;;;;;;;12.80;7.57;;;8.40;91.60;;;;;;5027785;28;20450;-66
2023/03/22 00:07:26;;;;;;;9.43;8.43;;;8.40;91.60;;;;;;5031029;28;20465;-67
2023/03/22 00:09:53;;;;;;;10.93;9.13;;;8.20;91.60;;;;;;5018304;28;20456;-67
2023/03/22 00:12:20;;;;;;;11.53;8.13;;;8.10;91.80;;;;;;5021916;28;20472;-66
2023/03/22 00:14:47;;;;;;;10.43;9.20;;;8.00;92.00;;;;;;5022824;28;20807;-66
2023/03/22 00:17:14;;;;;;;11.07;9.50;;;8.10;92.80;;;;;;5013248;28;20469;-67
2023/03/22 00:19:43;;;;;;;10.43;8.40;;;8.00;92.80;;;;;;5025187;28;20456;-66
2023/03/22 00:22:10;;;;;;;9.90;8.90;;;8.00;93.10;;;;;;5021711;28;20449;-65
2023/03/22 00:24:38;;;;;;;9.13;7.70;;;8.10;93.10;;;;;;5021286;28;20483;-66
2023/03/22 00:27:05;;;;;;;9.50;8.50;;;8.20;92.70;;;;;;5019652;28;20828;-67
2023/03/22 00:29:32;;;;;;;9.47;8.50;;;8.20;92.50;;;;;;5020878;28;20937;-66
2023/03/22 00:31:59;;;;;;;11.10;8.50;;;8.20;92.40;;;;;;5023203;28;20803;-66
2023/03/22 00:34:26;;;;;;;9.63;8.63;;;8.10;92.50;;;;;;5020162;28;20438;-66
2023/03/22 00:36:55;;;;;;;10.17;8.37;;;8.20;92.40;;;;;;5013941;28;20489;-67
2023/03/22 00:39:21;;;;;;;9.57;8.40;;;8.20;91.90;;;;;;5019701;28;20459;-66
2023/03/22 00:41:50;;;;;;;9.60;8.63;;;8.20;92.00;;;;;;5019837;28;20972;-67
2023/03/22 00:44:17;;;;;;;9.27;8.27;;;8.10;92.30;;;;;;5014726;28;20459;-66
2023/03/22 00:46:43;;;;;;;11.03;9.07;;;8.00;92.20;;;;;;5018252;28;21062;-66
2023/03/22 00:49:11;;;;;;;9.17;8.23;;;8.10;92.20;;;;;;5018032;28;20456;-67
2023/03/22 00:51:38;;;;;;;8.50;7.60;;;8.00;91.90;;;;;;5019795;28;20454;-66
2023/03/22 00:54:04;;;;;;;9.17;8.27;;;7.90;92.00;;;;;;5020966;28;20445;-67
2023/03/22 00:56:32;;;;;;;8.47;7.67;;;7.80;92.30;;;;;;5019378;28;20474;-67
2023/03/22 00:59:00;;;;;;;10.20;7.77;;;7.70;92.40;;;;;;5018963;28;20503;-67
2023/03/22 01:01:27;;;;;;;7.77;7.07;;;7.70;92.50;;;;;;5024695;28;20441;-67
2023/03/22 01:03:54;;;;;;;13.03;7.97;;;7.80;92.40;;;;;;5016982;28;20899;-66
2023/03/22 01:06:21;;;;;;;8.50;7.70;;;7.80;92.30;;;;;;5015327;28;20439;-67
2023/03/22 01:08:49;;;;;;;9.07;8.20;;;7.80;92.50;;;;;;5018047;28;20442;-66
2023/03/22 01:11:17;;;;;;;8.67;7.63;;;7.80;92.50;;;;;;5019703;28;20557;-67
2023/03/22 01:13:44;;;;;;;8.57;7.43;;;7.80;92.60;;;;;;5017216;28;20444;-67
2023/03/22 01:16:12;;;;;;;8.47;7.63;;;8.00;92.20;;;;;;5019824;28;21052;-67
2023/03/22 01:18:39;;;;;;;8.80;7.17;;;8.00;91.70;;;;;;5022049;28;20505;-67
2023/03/22 01:21:06;;;;;;;10.90;7.90;;;7.90;91.60;;;;;;5024273;28;20449;-67
2023/03/22 01:23:33;;;;;;;8.50;7.70;;;7.80;91.90;;;;;;5019623;28;20452;-67
2023/03/22 01:26:00;;;;;;;19.60;8.23;;;7.70;92.00;;;;;;5018841;28;20465;-65
2023/03/22 01:28:27;;;;;;;10.00;7.90;;;7.80;92.10;;;;;;5020862;28;20460;-66
2023/03/22 01:30:54;;;;;;;8.60;6.90;;;7.70;92.10;;;;;;5024655;28;20441;-67
2023/03/22 01:33:23;;;;;;;10.53;7.90;;;7.50;92.30;;;;;;5015108;28;20442;-67
2023/03/22 01:35:49;;;;;;;10.70;7.60;;;7.40;92.60;;;;;;5019866;28;20995;-67
2023/03/22 01:38:16;;;;;;;9.60;7.80;;;7.30;92.70;;;;;;5016021;28;20462;-66
2023/03/22 01:40:43;;;;;;;10.30;8.20;;;7.20;92.90;;;;;;5023048;28;20458;-67
2023/03/22 01:43:14;;;;;;;11.47;8.53;;;7.20;93.60;;;;;;5018422;28;20450;-69
2023/03/22 01:45:44;;;;;;;10.43;8.60;;;7.30;93.80;;;;;;5017684;28;20503;-67
2023/03/22 01:48:26;;;;;;;11.73;8.87;;;7.40;93.90;;;;;;5015508;28;20508;-67
2023/03/22 01:51:06;;;;;;;10.50;8.40;;;7.50;93.30;;;;;;5020064;28;20480;-67
2023/03/22 01:53:36;;;;;;;9.27;8.30;;;7.40;93.00;;;;;;5017449;28;20446;-67
2023/03/22 01:56:04;;;;;;;8.83;7.93;;;7.30;93.00;;;;;;5016565;28;20469;-67
2023/03/22 01:58:33;;;;;;;10.60;8.10;;;7.30;93.30;;;;;;5017736;28;20470;-67
2023/03/22 02:01:00;;;;;;;9.10;8.20;;;7.20;93.30;;;;;;5018687;28;20441;-66
2023/03/22 02:03:36;;;;;;;9.87;8.90;;;7.20;93.30;;;;;;5021760;28;20438;-67
2023/03/22 02:06:03;;;;;;;9.50;7.43;;;7.10;93.40;;;;;;5021119;28;21106;-67
2023/03/22 02:08:32;;;;;;;9.00;7.97;;;7.00;93.40;;;;;;5016208;28;20461;-67
2023/03/22 02:11:00;;;;;;;9.90;7.83;;;7.00;93.40;;;;;;5018111;28;20445;-66
2023/03/22 02:13:46;;;;;;;9.80;6.80;;;7.00;93.60;;;;;;5014547;28;20444;-67
2023/03/22 02:16:24;;;;;;;10.60;7.87;;;6.90;93.20;;;;;;5015865;28;20535;-67
2023/03/22 02:19:12;;;;;;;10.23;8.70;;;6.90;93.90;;;;;;5016852;28;20442;-67
2023/03/22 02:22:13;;;;;;;9.30;8.07;;;6.90;93.70;;;;;;5021144;28;20939;-68
2023/03/22 02:25:07;;;;;;;10.30;7.83;;;6.90;93.60;;;;;;5013974;28;20452;-68
2023/03/22 02:28:07;;;;;;;7.50;6.80;;;6.90;93.40;;;;;;5018972;28;20467;-66
2023/03/22 02:30:59;;;;;;;9.20;7.70;;;6.90;93.40;;;;;;5017272;28;20458;-67
2023/03/22 02:33:53;;;;;;;9.37;7.33;;;6.70;93.40;;;;;;5016905;28;20447;-67
2023/03/22 02:36:50;;;;;;;9.97;7.80;;;6.50;93.60;;;;;;5017666;28;20481;-66
2023/03/22 02:39:26;;;;;;;8.40;6.50;;;6.40;93.90;;;;;;5006067;28;20449;-67
2023/03/22 02:42:10;;;;;;;9.97;7.73;;;6.50;94.30;;;;;;5019166;28;21056;-67
2023/03/22 02:44:42;;;;;;;10.80;7.60;;;6.40;94.10;;;;;;5016799;28;20455;-67
2023/03/22 02:47:20;;;;;;;7.70;6.90;;;6.40;94.00;;;;;;5013204;28;20987;-67
2023/03/22 02:49:55;;;;;;;9.03;8.17;;;6.40;93.80;;;;;;5022684;28;20437;-67
2023/03/22 02:52:27;;;;;;;8.97;6.80;;;6.40;94.00;;;;;;5024292;28;20525;-66
2023/03/22 02:55:05;;;;;;;8.57;7.30;;;6.30;94.00;;;;;;5022332;28;20449;-67
2023/03/22 02:57:37;;;;;;;8.20;6.33;;;6.20;94.00;;;;;;5018264;28;20520;-67
2023/03/22 03:00:10;;;;;;;10.50;7.33;;;6.20;94.30;;;;;;5025325;28;20443;-67
2023/03/22 03:02:40;;;;;;;8.17;7.40;;;6.30;94.20;;;;;;5021021;28;20541;-67
2023/03/22 03:05:10;;;;;;;10.83;7.37;;;6.30;94.20;;;;;;5020283;28;20449;-67
2023/03/22 03:07:37;;;;;;;7.80;7.00;;;6.30;94.20;;;;;;5024195;28;20821;-67
2023/03/22 03:10:07;;;;;;;8.60;6.50;;;6.20;94.00;;;;;;5023385;28;20444;-66
2023/03/22 03:12:34;;;;;;;9.33;8.10;;;6.10;93.90;;;;;;5018380;28;20458;-67
2023/03/22 03:15:01;;;;;;;8.13;7.30;;;5.90;94.00;;;;;;5019377;28;20493;-66
2023/03/22 03:17:40;;;;;;;8.43;7.60;;;5.90;94.30;;;;;;5020004;28;20519;-67
2023/03/22 03:20:23;;;;;;;12.40;6.97;;;6.00;94.30;;;;;;5016949;28;20446;-65
2023/03/22 03:23:00;;;;;;;8.37;7.30;;;6.00;94.50;;;;;;5022558;28;20470;-65
2023/03/22 03:25:37;;;;;;;9.50;8.07;;;6.10;94.40;;;;;;5018613;28;20442;-66
2023/03/22 03:28:11;;;;;;;11.30;9.00;;;5.90;94.40;;;;;;5022251;28;20475;-67
2023/03/22 03:30:47;;;;;;;9.67;8.13;;;6.00;94.50;;;;;;5015504;28;20467;-67
2023/03/22 03:33:17;;;;;;;9.07;8.17;;;6.00;94.60;;;;;;5021620;28;20462;-66
2023/03/22 03:35:50;;;;;;;9.90;7.77;;;5.90;94.60;;;;;;5018527;28;20540;-66
2023/03/22 03:38:21;;;;;;;8.30;7.03;;;5.90;94.60;;;;;;5018658;28;20507;-66
2023/03/22 03:40:52;;;;;;;8.17;7.37;;;6.00;94.70;;;;;;5024244;28;20471;-65
2023/03/22 03:43:19;;;;;;;7.43;6.83;;;5.90;94.60;;;;;;5019446;28;20458;-67
2023/03/22 03:45:47;;;;;;;9.17;7.70;;;5.90;94.70;;;;;;5019741;28;20469;-66
2023/03/22 03:48:18;;;;;;;10.37;8.20;;;5.90;94.80;;;;;;5023891;28;21109;-65
2023/03/22 03:50:47;;;;;;;10.67;8.53;;;5.80;94.80;;;;;;5020111;28;20438;-68
2023/03/22 03:53:14;;;;;;;8.00;7.20;;;5.80;95.10;;;;;;5023130;28;21129;-67
2023/03/22 03:55:41;;;;;;;12.37;8.60;;;5.70;95.00;;;;;;5017814;28;20453;-67
2023/03/22 03:58:09;;;;;;;9.30;8.27;;;5.70;95.10;;;;;;5020852;28;20497;-67
2023/03/22 04:00:36;;;;;;;9.13;7.97;;;5.80;95.10;;;;;;5022431;28;20478;-67
2023/03/22 04:03:05;;;;;;;11.30;7.77;;;5.80;95.00;;;;;;5018341;28;20503;-67
2023/03/22 04:05:32;;;;;;;8.00;7.00;;;5.90;94.70;;;;;;5019738;28;20445;-67
2023/03/22 04:07:59;;;;;;;9.00;7.70;;;5.90;94.60;;;;;;5018934;28;20836;-67
2023/03/22 04:10:26;;;;;;;13.23;7.90;;;5.90;94.60;;;;;;5016566;28;20986;-67
2023/03/22 04:12:53;;;;;;;10.60;9.17;;;5.80;94.70;;;;;;5024696;28;20444;-67
2023/03/22 04:15:21;;;;;;;10.20;9.13;;;5.90;95.00;;;;;;5023046;28;20819;-67
2023/03/22 04:17:48;;;;;;;10.63;7.83;;;5.90;94.90;;;;;;5022240;28;20487;-68
2023/03/22 04:20:14;;;;;;;10.10;9.10;;;5.80;94.70;;;;;;5022520;28;20470;-67
2023/03/22 04:22:41;;;;;;;13.13;8.83;;;5.60;94.80;;;;;;5016921;28;20462;-68
2023/03/22 04:25:11;;;;;;;9.57;7.17;;;5.50;94.90;;;;;;5022370;28;20444;-67
2023/03/22 04:27:38;;;;;;;10.10;7.33;;;5.40;94.90;;;;;;5020861;28;20511;-67
2023/03/22 04:30:06;;;;;;;10.27;8.37;;;5.40;95.20;;;;;;5022947;28;20440;-67
2023/03/22 04:32:34;;;;;;;8.67;7.80;;;5.40;95.10;;;;;;5020394;28;20467;-67
2023/03/22 04:35:01;;;;;;;8.50;7.80;;;5.30;95.30;;;;;;5015705;28;20451;-68
2023/03/22 04:37:30;;;;;;;8.87;7.63;;;5.40;95.60;;;;;;5021222;28;20483;-67
2023/03/22 04:39:57;;;;;;;10.60;8.40;;;5.40;95.60;;;;;;5015803;28;20811;-67
2023/03/22 04:42:24;;;;;;;9.00;7.90;;;5.30;95.60;;;;;;5021947;28;20457;-67
2023/03/22 04:44:51;;;;;;;8.77;7.37;;;5.30;95.70;;;;;;5016585;28;20458;-68
2023/03/22 04:47:18;;;;;;;8.27;7.43;;;5.30;95.80;;;;;;5018995;28;20471;-67
2023/03/22 04:49:46;;;;;;;8.60;7.13;;;5.30;95.70;;;;;;5024651;28;20806;-67
2023/03/22 04:52:13;;;;;;;10.50;7.80;;;5.40;95.60;;;;;;5017769;28;20449;-67
2023/03/22 04:54:40;;;;;;;8.70;7.90;;;5.30;95.40;;;;;;5019375;28;20837;-67
2023/03/22 04:57:07;;;;;;;9.73;7.73;;;5.30;95.70;;;;;;5019619;28;20567;-66
2023/03/22 04:59:34;;;;;;;9.00;7.97;;;5.40;95.60;;;;;;5022954;28;20477;-67
2023/03/22 05:02:01;;;;;;;9.20;8.30;;;5.40;95.40;;;;;;5022056;28;20447;-67
2023/03/22 05:04:27;;;;;;;9.23;7.90;;;5.30;95.30;;;;;;5015693;28;20456;-67
2023/03/22 05:06:55;;;;;;;11.07;9.10;;;5.20;95.40;;;;;;5020905;28;20461;-67
2023/03/22 05:09:22;;;;;;;11.20;7.50;;;5.20;95.50;;;;;;5018189;28;20819;-67
2023/03/22 05:11:49;;;;;;;11.60;8.33;;;5.20;95.70;;;;;;5020213;28;20455;-68
2023/03/22 05:14:16;;;;;;;9.97;7.87;;;5.20;95.80;;;;;;5019905;28;20455;-67
2023/03/22 05:16:42;;;;;;;10.70;7.60;;;5.30;96.00;;;;;;5020118;28;20523;-68
2023/03/22 05:19:12;;;;;;;9.63;7.80;;;5.30;95.80;;;;;;5015475;28;20456;-67
2023/03/22 05:21:40;;;;;;;10.93;7.97;;;5.40;95.60;;;;;;5017501;28;20542;-68
2023/03/22 05:24:09;;;;;;;7.17;6.47;;;5.50;95.00;;;;;;5021886;28;20458;-67
2023/03/22 05:26:41;;;;;;;10.37;7.40;;;5.50;94.70;;;;;;5022251;28;20451;-68
2023/03/22 05:29:08;;;;;;;10.23;6.83;;;5.50;94.60;;;;;;5015690;28;20465;-69
2023/03/22 05:31:35;;;;;;;10.20;7.10;;;5.50;94.70;;;;;;5017703;28;20445;-66
2023/03/22 05:34:02;;;;;;;7.97;6.90;;;5.50;94.80;;;;;;5021063;28;20442;-68
2023/03/22 05:36:29;;;;;;;7.30;6.60;;;5.50;94.80;;;;;;5016847;28;20464;-67
2023/03/22 05:38:56;;;;;;;9.13;6.80;;;5.50;94.80;;;;;;5019141;28;20446;-66
2023/03/22 05:41:24;;;;;;;7.43;6.60;;;5.40;94.60;;;;;;5017230;28;20457;-67
2023/03/22 05:43:51;;;;;;;10.53;8.07;;;5.40;94.80;;;;;;5018278;28;20968;-67
2023/03/22 05:46:17;;;;;;;8.53;7.33;;;5.40;95.00;;;;;;5021406;28;20791;-67
2023/03/22 05:48:44;;;;;;;9.97;9.00;;;5.30;94.70;;;;;;5023867;28;20545;-68
2023/03/22 05:51:16;;;;;;;11.80;8.00;;;5.20;95.00;;;;;;5021791;28;20460;-67
2023/03/22 05:53:43;;;;;;;9.57;7.47;;;5.30;95.10;;;;;;5020608;28;20445;-67
2023/03/22 05:56:09;;;;;;;10.70;8.33;;;5.30;95.40;;;;;;5022469;28;20470;-67
2023/03/22 05:58:38;;;;;;;10.00;8.00;;;5.30;95.10;;;;;;5022974;28;20485;-65
2023/03/22 06:01:07;;;;;;;8.80;7.90;;;5.40;95.40;;;;;;5022185;28;20455;-67
2023/03/22 06:03:33;;;;;;;12.20;9.63;;;5.50;95.30;;;;;;5018703;28;20558;-67
2023/03/22 06:06:00;;;;;;;10.73;9.73;;;5.60;95.30;;;;;;5020842;28;20834;-65
2023/03/22 06:08:27;;;;;;;9.97;8.97;;;5.80;95.50;;;;;;5024380;28;20687;-68
2023/03/22 06:10:54;;;;;;;9.60;8.60;;;5.90;95.30;;;;;;5018483;28;20473;-67
2023/03/22 06:13:21;;;;;;;9.97;8.97;;;6.00;95.10;;;;;;5015163;28;20455;-67
2023/03/22 06:15:49;;;;;;;11.47;8.30;;;6.10;95.10;;;;;;5018942;28;20796;-67
2023/03/22 06:18:16;;;;;;;11.40;9.20;;;6.10;95.10;;;;;;5016857;28;20486;-67
2023/03/22 06:20:43;;;;;;;9.00;8.10;;;6.20;94.80;;;;;;5015959;28;20821;-67
2023/03/22 06:23:10;;;;;;;9.00;8.10;;;6.40;94.40;;;;;;5017600;28;20457;-67
2023/03/22 06:25:37;;;;;;;9.63;8.43;;;6.50;94.10;;;;;;5023540;28;20447;-67
2023/03/22 06:28:04;;;;;;;10.20;8.43;;;6.70;93.90;;;;;;5019441;28;20480;-66
2023/03/22 06:30:31;;;;;;;9.90;8.63;;;6.90;93.40;;;;;;5021875;28;20813;-65
2023/03/22 06:33:03;;;;;;;13.40;9.17;;;7.00;93.20;;;;;;5020951;28;20453;-65
2023/03/22 06:35:29;;;;;;;10.60;8.57;;;7.20;93.10;;;;;;5021793;28;20540;-66
2023/03/22 06:37:56;;;;;;;9.00;8.10;;;7.30;92.60;;;;;;5019408;28;20482;-66
2023/03/22 06:40:23;;;;;;;10.90;8.50;;;7.40;92.40;;;;;;5022866;28;20458;-65
2023/03/22 06:42:50;;;;;;;9.70;8.70;;;7.50;92.00;;;;;;5025868;28;20451;-67
2023/03/22 06:45:17;;;;;;;11.20;7.93;;;7.70;91.80;;;;;;5025541;28;20829;-66
2023/03/22 06:47:44;;;;;;;10.30;6.90;;;7.70;91.40;;;;;;5018532;28;20465;-65
2023/03/22 06:50:14;;;;;;;8.80;8.00;;;7.80;91.40;;;;;;5027117;28;20510;-66
2023/03/22 06:52:41;;;;;;;8.60;7.80;;;8.00;90.80;;;;;;5019315;28;20535;-66
2023/03/22 06:55:08;;;;;;;8.57;7.60;;;8.20;90.60;;;;;;5017352;28;20457;-66
2023/03/22 06:57:35;;;;;;;9.20;7.90;;;8.10;90.80;;;;;;5018386;28;20492;-66
2023/03/22 07:00:03;;;;;;;10.43;7.93;;;8.10;91.00;;;;;;5018617;28;20450;-67
2023/03/22 07:02:30;;;;;;;9.50;8.50;;;8.20;90.70;;;;;;5022849;28;20450;-67
2023/03/22 07:04:57;;;;;;;10.10;7.40;;;8.30;90.80;;;;;;5021937;28;20446;-66
2023/03/22 07:07:25;;;;;;;10.53;7.30;;;8.50;90.00;;;;;;5017597;28;20472;-66
2023/03/22 07:09:52;;;;;;;8.70;7.00;;;8.60;89.40;;;;;;5022691;28;20468;-66
2023/03/22 07:12:19;;;;;;;7.30;6.70;;;8.70;87.90;;;;;;5024255;28;20961;-67
2023/03/22 07:14:46;;;;;;;10.10;7.13;;;8.80;86.60;;;;;;5027009;28;20447;-67
2023/03/22 07:17:13;;;;;;;9.00;6.87;;;9.00;85.70;;;;;;5021285;28;20491;-67
2023/03/22 07:19:41;;;;;;;10.00;7.20;;;9.10;86.00;;;;;;5030156;28;20447;-65
2023/03/22 07:22:08;;;;;;;7.60;6.80;;;9.20;84.90;;;;;;5024928;28;20450;-66
2023/03/22 07:24:36;;;;;;;6.67;6.07;;;9.30;85.60;;;;;;5020095;28;20475;-67
2023/03/22 07:27:03;;;;;;;7.33;6.10;;;9.30;85.20;;;;;;5021769;28;20474;-67
2023/03/22 07:29:30;;;;;;;7.00;6.30;;;9.50;83.00;;;;;;5017395;28;20475;-67
2023/03/22 07:31:57;;;;;;;7.97;7.13;;;9.70;81.60;;;;;;5022712;28;21199;-69
2023/03/22 07:34:23;;;;;;;6.80;6.10;;;9.80;81.60;;;;;;5020959;28;20451;-66
2023/03/22 07:36:50;;;;;;;7.30;6.60;;;10.00;78.70;;;;;;5021787;28;20475;-68
2023/03/22 07:39:17;;;;;;;7.40;6.60;;;10.10;77.40;;;;;;5025130;28;20487;-67
2023/03/22 07:41:45;;;;;;;6.63;5.43;;;10.20;77.20;;;;;;5028062;28;20460;-66
2023/03/22 07:44:12;;;;;;;9.03;6.10;;;10.30;77.10;;;;;;5020074;28;21008;-68
2023/03/22 07:46:39;;;;;;;8.67;5.10;;;10.50;76.10;;;;;;5016783;28;21003;-67
2023/03/22 07:49:05;;;;;;;7.00;6.10;;;10.60;72.80;;;;;;5023771;28;20885;-68
2023/03/22 07:51:32;;;;;;;7.20;4.40;;;10.80;74.60;;;;;;5017747;28;20830;-67
2023/03/22 07:53:59;;;;;;;7.73;4.90;;;11.00;72.60;;;;;;5019589;28;20459;-67
2023/03/22 07:56:26;;;;;;;7.93;4.13;;;11.20;70.40;;;;;;5019378;28;20450;-67
2023/03/22 07:58:54;;;;;;;5.63;3.90;;;11.40;68.60;;;;;;5016480;28;20474;-67
2023/03/22 08:01:21;;;;;;;5.23;4.33;;;11.60;65.90;;;;;;5017933;28;20974;-67
2023/03/22 08:03:47;;;;;;;5.77;4.40;;;11.80;66.40;;;;;;5015336;28;20978;-67
2023/03/22 08:06:15;;;;;;;4.63;4.03;;;11.80;65.80;;;;;;5016004;28;20454;-66
2023/03/22 08:08:41;;;;;;;4.20;3.60;;;12.10;64.70;;;;;;5019693;28;20475;-67
2023/03/22 08:11:08;;;;;;;7.50;3.80;;;12.20;62.80;;;;;;5021297;28;20459;-68
2023/03/22 08:13:36;;;;;;;4.63;3.40;;;12.30;62.90;;;;;;5018834;28;20441;-67
2023/03/22 08:16:05;;;;;;;7.60;3.60;;;12.40;62.10;;;;;;5024272;28;20951;-67
2023/03/22 08:18:32;;;;;;;3.63;3.00;;;12.50;61.70;;;;;;5021220;28;20491;-67
2023/03/22 08:21:00;;;;;;;6.90;3.10;;;12.60;61.40;;;;;;5020621;28;20452;-68
2023/03/22 08:23:28;;;;;;;7.93;2.90;;;12.70;60.30;;;;;;5019659;28;20462;-67
2023/03/22 08:25:55;;;;;;;3.60;2.90;;;12.80;60.60;;;;;;5026282;28;20448;-67
2023/03/22 08:28:22;;;;;;;5.37;2.67;;;13.00;59.90;;;;;;5022493;28;20468;-67
2023/03/22 08:30:49;;;;;;;5.73;3.03;;;13.20;60.50;;;;;;5018376;28;20567;-65
2023/03/22 08:33:20;;;;;;;3.30;2.30;;;13.30;59.50;;;;;;5016807;28;20453;-66
2023/03/22 08:35:46;;;;;;;3.67;2.23;;;13.50;58.40;;;;;;5017577;28;20953;-66
2023/03/22 08:38:13;;;;;;;2.73;1.97;;;13.70;57.80;;;;;;5018411;28;20485;-66
2023/03/22 08:40:40;;;;;;;2.60;1.80;;;13.90;55.90;;;;;;5019134;28;20466;-65
2023/03/22 08:43:07;;;;;;;5.07;2.20;;;14.00;56.20;;;;;;5021603;28;21152;-64
2023/03/22 08:45:34;;;;;;;3.90;1.80;;;14.10;56.40;;;;;;5017256;28;20453;-67
2023/03/22 08:48:01;;;;;;;2.57;1.77;;;14.40;55.60;;;;;;5015856;28;20564;-66
2023/03/22 08:50:33;;;;;;;2.60;1.97;;;14.60;55.00;;;;;;5023003;28;20451;-67
2023/03/22 08:53:00;;;;;;;2.20;1.57;;;14.80;54.80;;;;;;5018843;28;20453;-66
2023/03/22 08:55:26;;;;;;;2.03;1.47;;;15.10;53.40;;;;;;5022514;28;20454;-66
2023/03/22 08:57:57;;;;;;;2.57;1.80;;;15.40;53.10;;;;;;5021481;28;20482;-67
2023/03/22 09:00:24;;;;;;;1.10;1.00;;;15.60;52.30;;;;;;5017807;28;20972;-67
2023/03/22 09:02:51;;;;;;;1.43;0.97;;;15.70;52.10;;;;;;5022643;28;20492;-66
2023/03/22 09:05:18;;;;;;;1.03;0.93;;;16.00;52.40;;;;;;5017806;28;20842;-66
2023/03/22 09:07:46;;;;;;;1.63;0.70;;;15.80;50.40;;;;;;5025392;28;20851;-66
2023/03/22 09:10:14;;;;;;;1.17;1.00;;;15.80;52.10;;;;;;5025496;28;20467;-66
2023/03/22 09:12:41;;;;;;;2.30;0.70;;;15.70;50.90;;;;;;5017455;28;20512;-65
2023/03/22 09:15:08;;;;;;;2.20;1.17;;;15.60;51.10;;;;;;5019270;28;20956;-65
2023/03/22 09:17:35;;;;;;;3.73;0.77;;;15.70;51.30;;;;;;5023561;28;20470;-66
2023/03/22 09:20:02;;;;;;;2.40;1.20;;;16.00;50.30;;;;;;5017133;28;20844;-67
2023/03/22 09:22:29;;;;;;;1.67;0.90;;;16.60;50.70;;;;;;5013436;28;20463;-66
2023/03/22 09:24:57;;;;;;;3.53;1.30;;;17.00;49.30;;;;;;5018724;28;20470;-67
2023/03/22 09:27:24;;;;;;;0.70;0.70;;;17.20;48.30;;;;;;5019963;28;20474;-67
2023/03/22 09:29:52;;;;;;;1.03;0.60;;;17.20;48.60;;;;;;5023126;28;20818;-67
2023/03/22 09:32:19;;;;;;;1.63;1.30;;;17.30;47.40;;;;;;5020755;28;20506;-66
2023/03/22 09:34:45;;;;;;;1.03;0.93;;;17.30;47.40;;;;;;5018551;28;20800;-66
2023/03/22 09:37:13;;;;;;;1.83;1.10;;;17.50;48.10;;;;;;5017400;28;20473;-67
2023/03/22 09:39:43;;;;;;;2.73;1.03;;;17.50;47.60;;;;;;5016251;28;20577;-65
2023/03/22 09:42:23;;;;;;;2.10;0.80;;;17.60;46.90;;;;;;5016923;28;20462;-66
2023/03/22 09:44:51;;;;;;;2.17;1.40;;;17.70;47.70;;;;;;5018969;28;20995;-67
2023/03/22 09:47:22;;;;;;;1.53;1.00;;;17.90;48.00;;;;;;5019127;28;21005;-66
2023/03/22 09:49:55;;;;;;;2.50;1.17;;;18.10;47.90;;;;;;5023015;28;20449;-65
2023/03/22 09:52:22;;;;;;;1.43;1.10;;;18.60;46.50;;;;;;5017388;28;20447;-66
2023/03/22 09:54:49;;;;;;;3.57;1.20;;;18.80;46.40;;;;;;5024105;28;20481;-66
2023/03/22 09:57:27;;;;;;;3.13;1.10;;;19.20;45.20;;;;;;5019229;28;20465;-66
2023/03/22 09:59:59;;;;;;;1.70;1.30;;;19.50;44.00;;;;;;5020965;28;20545;-66
2023/03/22 10:02:40;;;;;;;1.20;1.10;;;19.50;45.20;;;;;;5018478;28;20454;-66
2023/03/22 10:05:16;;;;;;;1.40;1.17;;;19.90;43.40;;;;;;5018463;28;20440;-67
2023/03/22 10:08:08;;;;;;;1.50;1.30;;;19.90;43.40;;;;;;5017039;28;20480;-66
2023/03/22 10:10:40;;;;;;;1.60;1.37;;;19.90;43.90;;;;;;5019543;28;20466;-66
2023/03/22 10:13:22;;;;;;;2.20;1.03;;;20.10;42.60;;;;;;5019765;28;20461;-66
2023/03/22 10:15:51;;;;;;;3.33;1.40;;;20.30;42.50;;;;;;5018097;28;20461;-66
2023/03/22 10:18:20;;;;;;;1.33;0.90;;;20.10;41.60;;;;;;5017916;28;20487;-67
2023/03/22 10:20:55;;;;;;;2.73;1.23;;;19.30;43.10;;;;;;5021501;28;20461;-66
2023/03/22 10:23:28;;;;;;;2.90;1.50;;;18.90;44.20;;;;;;5012557;28;20458;-66
2023/03/22 10:25:57;;;;;;;2.17;1.30;;;18.50;44.00;;;;;;5018538;28;20452;-65
2023/03/22 10:28:31;;;;;;;2.93;1.03;;;18.10;46.20;;;;;;5016389;28;20469;-66
2023/03/22 10:30:58;;;;;;;1.50;1.30;;;17.70;45.80;;;;;;5016109;28;20520;-66
2023/03/22 10:33:34;;;;;;;1.40;1.10;;;17.80;46.60;;;;;;5020819;28;20912;-65
2023/03/22 10:36:03;;;;;;;2.07;1.03;;;18.40;47.10;;;;;;5014651;28;20441;-67
2023/03/22 10:38:32;;;;;;;1.47;1.10;;;19.00;44.30;;;;;;5020298;28;20508;-65
2023/03/22 10:40:59;;;;;;;1.10;0.93;;;19.70;44.20;;;;;;5017567;28;20464;-66
2023/03/22 10:43:31;;;;;;;1.17;0.97;;;20.30;43.30;;;;;;5013752;28;20518;-64
2023/03/22 10:46:01;;;;;;;1.33;1.00;;;20.50;41.50;;;;;;5017193;28;20442;-66
2023/03/22 10:48:31;;;;;;;1.47;1.00;;;20.30;42.20;;;;;;5016505;28;20458;-66
2023/03/22 10:50:59;;;;;;;1.40;0.90;;;20.00;43.20;;;;;;5021425;28;20453;-66
2023/03/22 10:53:36;;;;;;;3.47;0.90;;;20.00;42.30;;;;;;5015679;28;20445;-65
2023/03/22 10:56:03;;;;;;;2.73;1.23;;;19.60;43.00;;;;;;5013815;28;20453;-66
2023/03/22 10:58:32;;;;;;;1.60;1.00;;;19.50;44.10;;;;;;5017581;28;20488;-66
2023/03/22 11:01:05;;;;;;;1.47;1.10;;;19.60;42.90;;;;;;5015380;28;20449;-66
2023/03/22 11:03:38;;;;;;;1.33;1.00;;;20.40;43.00;;;;;;5016887;28;20459;-67
2023/03/22 11:06:09;;;;;;;2.23;1.50;;;21.30;42.30;;;;;;5018748;28;20468;-66
2023/03/22 11:08:45;;;;;;;1.57;1.27;;;21.10;41.30;;;;;;5022817;28;20518;-66
2023/03/22 11:11:19;;;;;;;2.07;1.30;;;20.00;42.70;;;;;;5024144;28;20445;-65
2023/03/22 11:13:59;;;;;;;1.10;1.00;;;19.90;43.20;;;;;;5021286;28;20440;-67
2023/03/22 11:16:26;;;;;;;1.37;1.27;;;20.80;42.20;;;;;;5023272;28;20453;-65
2023/03/22 11:18:55;;;;;;;1.73;1.17;;;21.60;43.40;;;;;;5015857;28;20482;-66
2023/03/22 11:21:27;;;;;;;1.40;1.00;;;21.90;40.40;;;;;;5022638;28;20445;-67
2023/03/22 11:23:57;;;;;;;1.30;1.20;;;22.20;40.90;;;;;;5020019;28;20975;-67
2023/03/22 11:26:32;;;;;;;2.10;1.30;;;22.40;40.00;;;;;;5023262;28;20454;-67
2023/03/22 11:29:08;;;;;;;2.13;1.40;;;23.20;39.40;;;;;;5018448;28;20441;-65
2023/03/22 11:31:54;;;;;;;1.93;1.13;;;23.20;38.40;;;;;;5022945;28;20444;-66
2023/03/22 11:34:25;;;;;;;2.50;1.30;;;23.30;38.90;;;;;;5023159;28;20495;-66
2023/03/22 11:36:55;;;;;;;1.47;1.13;;;23.40;37.40;;;;;;5019206;28;20471;-67
2023/03/22 11:39:23;;;;;;;2.47;1.20;;;23.70;38.50;;;;;;5023550;28;21234;-67
2023/03/22 11:41:51;;;;;;;1.80;1.60;;;24.20;36.20;;;;;;5017162;28;20485;-67
2023/03/22 11:44:21;;;;;;;2.50;1.63;;;24.00;36.30;;;;;;5020441;28;20461;-67
2023/03/22 11:46:51;;;;;;;1.70;1.27;;;23.80;37.60;;;;;;5025433;28;20464;-66
2023/03/22 11:49:19;;;;;;;1.40;1.20;;;23.50;36.90;;;;;;5020356;28;20441;-66
2023/03/22 11:51:46;;;;;;;2.10;1.60;;;21.90;38.90;;;;;;5028982;28;20453;-66
2023/03/22 11:54:19;;;;;;;2.63;1.60;;;21.00;40.50;;;;;;5023851;28;21027;-65
2023/03/22 11:56:49;;;;;;;2.80;1.40;;;20.60;43.00;;;;;;5022790;28;20469;-66
2023/03/22 11:59:22;;;;;;;3.30;1.20;;;20.50;42.70;;;;;;5019925;28;20477;-66
2023/03/22 12:01:54;;;;;;;1.60;1.30;;;20.60;42.30;;;;;;5023697;28;20974;-66
2023/03/22 12:04:26;;;;;;;1.60;1.20;;;20.90;41.30;;;;;;5023340;28;20453;-67
2023/03/22 12:06:57;;;;;;;2.23;1.27;;;21.50;40.70;;;;;;5021379;28;20473;-66
2023/03/22 12:09:41;;;;;;;3.47;1.70;;;22.80;39.70;;;;;;5023452;28;20970;-66
2023/03/22 12:12:16;;;;;;;1.67;1.10;;;23.60;38.40;;;;;;5024454;28;20462;-66
2023/03/22 12:14:50;;;;;;;4.10;1.90;;;23.20;38.60;;;;;;5021052;28;20456;-66
2023/03/22 12:17:24;;;;;;;2.37;1.60;;;22.90;38.40;;;;;;5023028;28;20471;-66
2023/03/22 12:19:59;;;;;;;2.30;1.50;;;22.60;38.50;;;;;;5022290;28;20522;-67
2023/03/22 12:22:30;;;;;;;1.00;0.90;;;22.80;38.40;;;;;;5019148;28;20452;-67
2023/03/22 12:24:58;;;;;;;1.53;1.20;;;22.60;39.00;;;;;;5019505;28;20464;-66
2023/03/22 12:27:30;;;;;;;3.57;1.60;;;22.60;39.10;;;;;;5016787;28;20473;-67
2023/03/22 12:30:01;;;;;;;1.40;1.20;;;23.10;39.80;;;;;;5016999;28;20452;-66
2023/03/22 12:32:33;;;;;;;1.77;1.20;;;22.90;38.60;;;;;;5021400;28;20442;-67
2023/03/22 12:35:00;;;;;;;1.43;0.93;;;22.90;38.70;;;;;;5023784;28;20450;-67
2023/03/22 12:37:32;;;;;;;1.50;0.90;;;22.40;37.70;;;;;;5018816;28;20473;-66
2023/03/22 12:40:04;;;;;;;1.20;0.80;;;22.00;38.00;;;;;;5016764;28;20473;-67
2023/03/22 12:42:36;;;;;;;1.47;1.10;;;21.70;39.50;;;;;;5020627;28;20491;-66
2023/03/22 12:45:10;;;;;;;2.00;0.90;;;21.80;39.60;;;;;;5016821;28;20448;-66
2023/03/22 12:47:42;;;;;;;1.67;0.80;;;21.90;38.70;;;;;;5022070;28;20516;-66
2023/03/22 12:50:13;;;;;;;2.20;1.03;;;21.50;39.90;;;;;;5019706;28;20908;-67
2023/03/22 12:52:45;;;;;;;1.30;1.10;;;21.30;38.60;;;;;;5017645;28;20450;-66
2023/03/22 12:55:21;;;;;;;1.63;0.90;;;21.90;39.20;;;;;;5022405;28;20446;-67
2023/03/22 12:57:51;;;;;;;1.80;0.80;;;22.80;36.70;;;;;;5018204;28;20464;-66
2023/03/22 13:00:19;;;;;;;1.30;0.70;;;23.30;36.10;;;;;;5020733;28;20488;-66
2023/03/22 13:02:53;;;;;;;1.57;0.90;;;24.10;35.10;;;;;;5019179;28;20534;-67